createdAt,value
2018-11-04T00:00:21.263Z,1012.26
2018-11-04T00:01:21.306Z,1012.25
2018-11-04T00:02:21.254Z,1012.28
2018-11-04T00:03:21.273Z,1012.32
2018-11-04T00:04:21.222Z,1012.31
2018-11-04T00:05:21.206Z,1012.26
2018-11-04T00:06:21.193Z,1012.34
2018-11-04T00:07:21.188Z,1012.33
2018-11-04T00:08:21.182Z,1012.32
2018-11-04T00:09:21.197Z,1012.36
2018-11-04T00:10:21.152Z,1012.42
2018-11-04T00:11:21.141Z,1012.34
2018-11-04T00:12:21.131Z,1012.35
2018-11-04T00:13:21.207Z,1012.36
2018-11-04T00:14:31.550Z,1012.35
2018-11-04T00:15:21.101Z,1012.36
2018-11-04T00:16:21.083Z,1012.38
2018-11-04T00:17:21.076Z,1012.39
2018-11-04T00:18:21.062Z,1012.36
2018-11-04T00:19:21.054Z,1012.38
2018-11-04T00:20:21.141Z,1012.38
2018-11-04T00:21:21.037Z,1012.35
2018-11-04T00:22:21.026Z,1012.35
2018-11-04T00:23:21.019Z,1012.38
2018-11-04T00:24:21.006Z,1012.39
2018-11-04T00:25:20.987Z,1012.33
2018-11-04T00:26:21.000Z,1012.37
2018-11-04T00:27:20.973Z,1012.41
2018-11-04T00:28:20.988Z,1012.38
2018-11-04T00:29:20.954Z,1012.40
2018-11-04T00:30:20.938Z,1012.41
2018-11-04T00:31:20.929Z,1012.38
2018-11-04T00:32:20.954Z,1012.44
2018-11-04T00:33:20.903Z,1012.42
2018-11-04T00:34:20.898Z,1012.47
2018-11-04T00:35:20.880Z,1012.50
2018-11-04T00:36:20.873Z,1012.51
2018-11-04T00:37:20.863Z,1012.46
2018-11-04T00:38:20.896Z,1012.50
2018-11-04T00:39:20.835Z,1012.46
2018-11-04T00:40:20.835Z,1012.53
2018-11-04T00:41:20.817Z,1012.50
2018-11-04T00:42:20.810Z,1012.57
2018-11-04T00:43:20.794Z,1012.53
2018-11-04T00:44:20.821Z,1012.52
2018-11-04T00:45:31.326Z,1012.56
2018-11-04T00:46:20.766Z,1012.57
2018-11-04T00:47:20.751Z,1012.55
2018-11-04T00:48:20.745Z,1012.51
2018-11-04T00:49:20.734Z,1012.57
2018-11-04T00:50:20.771Z,1012.59
2018-11-04T00:51:20.714Z,1012.58
2018-11-04T00:52:20.699Z,1012.59
2018-11-04T00:53:20.690Z,1012.59
2018-11-04T00:54:20.684Z,1012.57
2018-11-04T00:55:20.670Z,1012.52
2018-11-04T00:56:20.809Z,1012.60
2018-11-04T00:57:20.649Z,1012.62
2018-11-04T00:58:20.640Z,1012.55
2018-11-04T00:59:20.631Z,1012.56
2018-11-04T01:00:20.618Z,1012.56
2018-11-04T01:01:20.646Z,1012.60
2018-11-04T01:02:20.629Z,1012.56
2018-11-04T01:03:20.592Z,1012.58
2018-11-04T01:04:20.576Z,1012.60
2018-11-04T01:05:20.556Z,1012.59
2018-11-04T01:06:20.549Z,1012.56
2018-11-04T01:07:20.534Z,1012.55
2018-11-04T01:08:20.573Z,1012.56
2018-11-04T01:09:20.644Z,1012.55
2018-11-04T01:10:20.518Z,1012.56
2018-11-04T01:11:20.494Z,1012.57
2018-11-04T01:12:20.488Z,1012.57
2018-11-04T01:13:20.484Z,1012.60
2018-11-04T01:14:20.632Z,1012.58
2018-11-04T01:15:20.453Z,1012.62
2018-11-04T01:16:30.951Z,1012.59
2018-11-04T01:17:20.430Z,1012.56
2018-11-04T01:18:20.418Z,1012.58
2018-11-04T01:19:20.407Z,1012.55
2018-11-04T01:20:20.415Z,1012.60
2018-11-04T01:21:20.388Z,1012.60
2018-11-04T01:22:20.380Z,1012.59
2018-11-04T01:23:20.374Z,1012.60
2018-11-04T01:24:20.408Z,1012.67
2018-11-04T01:25:20.350Z,1012.67
2018-11-04T01:26:20.517Z,1012.67
2018-11-04T01:27:20.321Z,1012.69
2018-11-04T01:28:20.314Z,1012.74
2018-11-04T01:29:20.365Z,1012.74
2018-11-04T01:30:20.454Z,1012.75
2018-11-04T01:31:20.288Z,1012.79
2018-11-04T01:32:20.303Z,1012.77
2018-11-04T01:33:20.258Z,1012.78
2018-11-04T01:34:21.016Z,1012.76
2018-11-04T01:35:20.295Z,1012.79
2018-11-04T01:36:20.225Z,1012.81
2018-11-04T01:37:20.221Z,1012.83
2018-11-04T01:38:20.240Z,1012.82
2018-11-04T01:39:20.201Z,1012.83
2018-11-04T01:40:20.188Z,1012.84
2018-11-04T01:41:20.174Z,1012.84
2018-11-04T01:42:20.161Z,1012.84
2018-11-04T01:43:20.153Z,1012.86
2018-11-04T01:44:20.186Z,1012.86
2018-11-04T01:45:20.133Z,1012.84
2018-11-04T01:46:20.117Z,1012.84
2018-11-04T01:47:32.098Z,1012.83
2018-11-04T01:48:20.094Z,1012.81
2018-11-04T01:49:20.084Z,1012.85
2018-11-04T01:50:20.109Z,1012.86
2018-11-04T01:51:20.070Z,1012.81
2018-11-04T01:52:20.061Z,1012.80
2018-11-04T01:53:20.043Z,1012.78
2018-11-04T01:54:20.037Z,1012.88
2018-11-04T01:55:20.024Z,1012.89
2018-11-04T01:56:20.112Z,1012.90
2018-11-04T01:57:20.004Z,1012.89
2018-11-04T01:58:19.990Z,1012.89
2018-11-04T01:59:19.984Z,1012.91
2018-11-04T02:00:19.986Z,1012.89
2018-11-04T02:01:19.967Z,1012.90
2018-11-04T02:02:19.988Z,1012.93
2018-11-04T02:03:19.942Z,1012.93
2018-11-04T02:04:19.925Z,1012.85
2018-11-04T02:05:19.915Z,1012.86
2018-11-04T02:06:19.906Z,1012.89
2018-11-04T02:07:19.901Z,1012.89
2018-11-04T02:08:20.052Z,1012.91
2018-11-04T02:09:19.873Z,1012.90
2018-11-04T02:10:19.863Z,1012.92
2018-11-04T02:11:19.853Z,1012.88
2018-11-04T02:12:19.845Z,1012.88
2018-11-04T02:13:19.829Z,1012.94
2018-11-04T02:14:19.863Z,1012.98
2018-11-04T02:15:19.809Z,1013.03
2018-11-04T02:16:19.798Z,1013.01
2018-11-04T02:17:19.792Z,1013.05
2018-11-04T02:18:30.065Z,1013.14
2018-11-04T02:19:19.768Z,1013.11
2018-11-04T02:20:19.792Z,1013.14
2018-11-04T02:21:19.744Z,1013.19
2018-11-04T02:22:19.730Z,1013.15
2018-11-04T02:23:19.726Z,1013.17
2018-11-04T02:24:19.711Z,1013.12
2018-11-04T02:25:19.710Z,1013.11
2018-11-04T02:26:19.711Z,1013.18
2018-11-04T02:27:19.680Z,1013.16
2018-11-04T02:28:19.667Z,1013.22
2018-11-04T02:29:19.668Z,1013.18
2018-11-04T02:30:19.658Z,1013.19
2018-11-04T02:31:19.640Z,1013.16
2018-11-04T02:32:19.665Z,1013.26
2018-11-04T02:33:19.616Z,1013.23
2018-11-04T02:34:19.601Z,1013.21
2018-11-04T02:35:19.591Z,1013.21
2018-11-04T02:36:19.589Z,1013.24
2018-11-04T02:37:19.572Z,1013.19
2018-11-04T02:38:19.600Z,1013.23
2018-11-04T02:39:19.550Z,1013.18
2018-11-04T02:40:19.572Z,1013.20
2018-11-04T02:41:19.526Z,1013.16
2018-11-04T02:42:19.526Z,1013.19
2018-11-04T02:43:19.517Z,1013.14
2018-11-04T02:44:19.533Z,1013.20
2018-11-04T02:45:19.485Z,1013.18
2018-11-04T02:46:19.477Z,1013.19
2018-11-04T02:47:19.467Z,1013.16
2018-11-04T02:48:19.461Z,1013.18
2018-11-04T02:49:30.112Z,1013.14
2018-11-04T02:50:19.436Z,1013.21
2018-11-04T02:51:19.418Z,1013.28
2018-11-04T02:52:19.417Z,1013.28
2018-11-04T02:53:19.396Z,1013.20
2018-11-04T02:54:19.395Z,1013.27
2018-11-04T02:55:19.420Z,1013.28
2018-11-04T02:56:19.372Z,1013.35
2018-11-04T02:57:19.364Z,1013.39
2018-11-04T02:58:19.350Z,1013.35
2018-11-04T02:59:19.338Z,1013.42
2018-11-04T03:00:19.326Z,1013.41
2018-11-04T03:01:19.511Z,1013.43
2018-11-04T03:02:19.307Z,1013.43
2018-11-04T03:03:19.301Z,1013.45
2018-11-04T03:04:19.281Z,1013.52
2018-11-04T03:05:19.275Z,1013.50
2018-11-04T03:06:19.261Z,1013.53
2018-11-04T03:07:19.283Z,1013.54
2018-11-04T03:08:19.249Z,1013.59
2018-11-04T03:09:19.242Z,1013.58
2018-11-04T03:10:19.218Z,1013.60
2018-11-04T03:11:19.210Z,1013.51
2018-11-04T03:12:19.202Z,1013.57
2018-11-04T03:13:19.223Z,1013.59
2018-11-04T03:14:19.179Z,1013.60
2018-11-04T03:15:19.163Z,1013.58
2018-11-04T03:16:19.152Z,1013.65
2018-11-04T03:17:19.147Z,1013.65
2018-11-04T03:18:19.134Z,1013.63
2018-11-04T03:19:19.162Z,1013.69
2018-11-04T03:20:28.994Z,1013.71
2018-11-04T03:21:19.104Z,1013.74
2018-11-04T03:22:19.092Z,1013.73
2018-11-04T03:23:19.077Z,1013.84
2018-11-04T03:24:19.075Z,1013.83
2018-11-04T03:25:19.101Z,1013.88
2018-11-04T03:26:19.051Z,1013.91
2018-11-04T03:27:19.041Z,1013.88
2018-11-04T03:28:19.033Z,1013.89
2018-11-04T03:29:19.017Z,1013.89
2018-11-04T03:30:19.009Z,1013.91
2018-11-04T03:31:19.024Z,1013.93
2018-11-04T03:32:18.983Z,1013.93
2018-11-04T03:33:18.992Z,1013.95
2018-11-04T03:34:18.963Z,1013.91
2018-11-04T03:35:18.949Z,1013.94
2018-11-04T03:36:18.947Z,1013.94
2018-11-04T03:37:18.962Z,1013.99
2018-11-04T03:38:18.917Z,1013.97
2018-11-04T03:39:18.910Z,1014.01
2018-11-04T03:40:18.896Z,1013.98
2018-11-04T03:41:18.890Z,1013.99
2018-11-04T03:42:18.885Z,1014.02
2018-11-04T03:43:18.904Z,1013.96
2018-11-04T03:44:18.855Z,1013.96
2018-11-04T03:45:18.841Z,1013.98
2018-11-04T03:46:19.579Z,1013.97
2018-11-04T03:47:18.826Z,1014.05
2018-11-04T03:48:18.804Z,1014.09
2018-11-04T03:49:18.831Z,1014.09
2018-11-04T03:50:18.784Z,1014.05
2018-11-04T03:51:29.112Z,1014.09
2018-11-04T03:52:18.767Z,1014.12
2018-11-04T03:53:18.752Z,1014.09
2018-11-04T03:54:18.746Z,1014.10
2018-11-04T03:55:18.769Z,1014.09
2018-11-04T03:56:18.728Z,1014.05
2018-11-04T03:57:18.707Z,1014.06
2018-11-04T03:58:18.711Z,1014.09
2018-11-04T03:59:18.698Z,1014.16
2018-11-04T04:00:18.675Z,1014.11
2018-11-04T04:01:18.849Z,1014.10
2018-11-04T04:02:18.660Z,1014.14
2018-11-04T04:03:18.649Z,1014.11
2018-11-04T04:04:18.641Z,1014.16
2018-11-04T04:05:18.627Z,1014.17
2018-11-04T04:06:18.617Z,1014.14
2018-11-04T04:07:18.704Z,1014.19
2018-11-04T04:08:18.590Z,1014.14
2018-11-04T04:09:19.091Z,1014.15
2018-11-04T04:10:18.571Z,1014.17
2018-11-04T04:11:18.559Z,1014.20
2018-11-04T04:12:18.548Z,1014.19
2018-11-04T04:13:18.628Z,1014.22
2018-11-04T04:14:18.536Z,1014.19
2018-11-04T04:15:18.521Z,1014.28
2018-11-04T04:16:18.505Z,1014.24
2018-11-04T04:17:18.492Z,1014.25
2018-11-04T04:18:18.520Z,1014.19
2018-11-04T04:19:18.628Z,1014.21
2018-11-04T04:20:18.461Z,1014.28
2018-11-04T04:21:18.450Z,1014.23
2018-11-04T04:22:28.869Z,1014.26
2018-11-04T04:23:18.428Z,1014.19
2018-11-04T04:24:18.425Z,1014.19
2018-11-04T04:25:18.448Z,1014.20
2018-11-04T04:26:18.395Z,1014.18
2018-11-04T04:27:18.387Z,1014.17
2018-11-04T04:28:18.380Z,1014.14
2018-11-04T04:29:18.372Z,1014.18
2018-11-04T04:30:18.356Z,1014.20
2018-11-04T04:31:18.364Z,1014.09
2018-11-04T04:32:18.340Z,1014.12
2018-11-04T04:33:18.327Z,1014.10
2018-11-04T04:34:18.319Z,1014.13
2018-11-04T04:35:18.303Z,1014.08
2018-11-04T04:36:18.288Z,1014.07
2018-11-04T04:37:18.320Z,1014.12
2018-11-04T04:38:18.274Z,1014.12
2018-11-04T04:39:18.257Z,1014.14
2018-11-04T04:40:18.251Z,1014.14
2018-11-04T04:41:18.234Z,1014.19
2018-11-04T04:42:18.234Z,1014.22
2018-11-04T04:43:18.249Z,1014.21
2018-11-04T04:44:18.204Z,1014.19
2018-11-04T04:45:18.199Z,1014.15
2018-11-04T04:46:18.188Z,1014.22
2018-11-04T04:47:18.173Z,1014.17
2018-11-04T04:48:18.172Z,1014.25
2018-11-04T04:49:18.192Z,1014.23
2018-11-04T04:50:18.157Z,1014.23
2018-11-04T04:51:18.136Z,1014.25
2018-11-04T04:52:18.117Z,1014.28
2018-11-04T04:53:30.099Z,1014.28
2018-11-04T04:54:18.096Z,1014.23
2018-11-04T04:55:18.173Z,1014.28
2018-11-04T04:56:18.083Z,1014.31
2018-11-04T04:57:18.068Z,1014.29
2018-11-04T04:58:18.060Z,1014.33
2018-11-04T04:59:18.045Z,1014.33
2018-11-04T05:00:18.033Z,1014.27
2018-11-04T05:01:18.058Z,1014.32
2018-11-04T05:02:18.026Z,1014.33
2018-11-04T05:03:18.019Z,1014.32
2018-11-04T05:04:17.991Z,1014.37
2018-11-04T05:05:17.985Z,1014.31
2018-11-04T05:06:17.970Z,1014.34
2018-11-04T05:07:18.140Z,1014.35
2018-11-04T05:08:17.951Z,1014.35
2018-11-04T05:09:17.945Z,1014.41
2018-11-04T05:10:17.930Z,1014.46
2018-11-04T05:11:17.927Z,1014.49
2018-11-04T05:12:17.907Z,1014.48
2018-11-04T05:13:17.940Z,1014.47
2018-11-04T05:14:17.887Z,1014.50
2018-11-04T05:15:17.881Z,1014.53
2018-11-04T05:16:17.864Z,1014.57
2018-11-04T05:17:17.863Z,1014.59
2018-11-04T05:18:17.845Z,1014.58
2018-11-04T05:19:17.872Z,1014.57
2018-11-04T05:20:17.828Z,1014.54
2018-11-04T05:21:17.814Z,1014.52
2018-11-04T05:22:17.796Z,1014.50
2018-11-04T05:23:17.792Z,1014.50
2018-11-04T05:24:28.189Z,1014.47
2018-11-04T05:25:17.766Z,1014.47
2018-11-04T05:26:17.755Z,1014.45
2018-11-04T05:27:17.745Z,1014.45
2018-11-04T05:28:17.739Z,1014.42
2018-11-04T05:29:17.729Z,1014.37
2018-11-04T05:30:17.747Z,1014.44
2018-11-04T05:31:17.707Z,1014.39
2018-11-04T05:32:17.698Z,1014.42
2018-11-04T05:33:17.689Z,1014.48
2018-11-04T05:34:17.672Z,1014.50
2018-11-04T05:35:17.659Z,1014.45
2018-11-04T05:36:17.686Z,1014.47
2018-11-04T05:37:17.644Z,1014.51
2018-11-04T05:38:17.663Z,1014.57
2018-11-04T05:39:17.616Z,1014.58
2018-11-04T05:40:17.616Z,1014.55
2018-11-04T05:41:17.602Z,1014.62
2018-11-04T05:42:17.623Z,1014.61
2018-11-04T05:43:17.574Z,1014.65
2018-11-04T05:44:17.564Z,1014.66
2018-11-04T05:45:17.561Z,1014.64
2018-11-04T05:46:17.554Z,1014.66
2018-11-04T05:47:17.537Z,1014.66
2018-11-04T05:48:17.562Z,1014.68
2018-11-04T05:49:17.516Z,1014.70
2018-11-04T05:50:17.503Z,1014.66
2018-11-04T05:51:17.494Z,1014.65
2018-11-04T05:52:17.482Z,1014.65
2018-11-04T05:53:17.474Z,1014.68
2018-11-04T05:54:17.500Z,1014.68
2018-11-04T05:55:27.664Z,1014.67
2018-11-04T05:56:17.434Z,1014.70
2018-11-04T05:57:17.428Z,1014.72
2018-11-04T05:58:17.415Z,1014.70
2018-11-04T05:59:17.410Z,1014.73
2018-11-04T06:00:17.568Z,1014.73
2018-11-04T06:01:17.385Z,1014.70
2018-11-04T06:02:17.369Z,1014.71
2018-11-04T06:03:17.368Z,1014.71
2018-11-04T06:04:17.354Z,1014.73
2018-11-04T06:05:17.339Z,1014.70
2018-11-04T06:06:17.511Z,1014.66
2018-11-04T06:07:17.322Z,1014.70
2018-11-04T06:08:17.315Z,1014.74
2018-11-04T06:09:17.359Z,1014.73
2018-11-04T06:10:17.293Z,1014.74
2018-11-04T06:11:17.280Z,1014.73
2018-11-04T06:12:17.286Z,1014.81
2018-11-04T06:13:17.260Z,1014.80
2018-11-04T06:14:17.246Z,1014.78
2018-11-04T06:15:17.236Z,1014.85
2018-11-04T06:16:17.229Z,1014.90
2018-11-04T06:17:17.217Z,1014.92
2018-11-04T06:18:17.240Z,1015.00
2018-11-04T06:19:17.201Z,1014.97
2018-11-04T06:20:17.179Z,1015.01
2018-11-04T06:21:18.146Z,1015.04
2018-11-04T06:22:17.165Z,1015.01
2018-11-04T06:23:17.145Z,1015.08
2018-11-04T06:24:17.177Z,1015.09
2018-11-04T06:25:17.137Z,1015.11
2018-11-04T06:26:27.499Z,1015.15
2018-11-04T06:27:17.101Z,1015.16
2018-11-04T06:28:17.097Z,1015.14
2018-11-04T06:29:17.087Z,1015.11
2018-11-04T06:30:17.113Z,1015.13
2018-11-04T06:31:17.065Z,1015.22
2018-11-04T06:32:17.047Z,1015.25
2018-11-04T06:33:17.037Z,1015.20
2018-11-04T06:34:17.030Z,1015.33
2018-11-04T06:35:17.020Z,1015.31
2018-11-04T06:36:17.032Z,1015.37
2018-11-04T06:37:16.997Z,1015.34
2018-11-04T06:38:16.992Z,1015.37
2018-11-04T06:39:16.978Z,1015.35
2018-11-04T06:40:16.967Z,1015.41
2018-11-04T06:41:17.041Z,1015.39
2018-11-04T06:42:17.150Z,1015.41
2018-11-04T06:43:16.937Z,1015.45
2018-11-04T06:44:16.925Z,1015.48
2018-11-04T06:45:16.920Z,1015.49
2018-11-04T06:46:16.901Z,1015.50
2018-11-04T06:47:16.987Z,1015.49
2018-11-04T06:48:16.922Z,1015.52
2018-11-04T06:49:16.871Z,1015.52
2018-11-04T06:50:16.863Z,1015.57
2018-11-04T06:51:16.853Z,1015.56
2018-11-04T06:52:16.850Z,1015.61
2018-11-04T06:53:16.826Z,1015.61
2018-11-04T06:54:16.857Z,1015.59
2018-11-04T06:55:16.806Z,1015.60
2018-11-04T06:56:16.796Z,1015.64
2018-11-04T06:57:27.260Z,1015.58
2018-11-04T06:58:16.772Z,1015.61
2018-11-04T06:59:16.767Z,1015.54
2018-11-04T07:00:16.783Z,1015.57
2018-11-04T07:01:16.741Z,1015.56
2018-11-04T07:02:16.736Z,1015.62
2018-11-04T07:03:16.725Z,1015.61
2018-11-04T07:04:16.823Z,1015.60
2018-11-04T07:05:16.698Z,1015.63
2018-11-04T07:06:16.731Z,1015.63
2018-11-04T07:07:16.678Z,1015.67
2018-11-04T07:08:16.674Z,1015.67
2018-11-04T07:09:16.656Z,1015.66
2018-11-04T07:10:16.655Z,1015.66
2018-11-04T07:11:16.634Z,1015.74
2018-11-04T07:12:16.713Z,1015.70
2018-11-04T07:13:16.613Z,1015.69
2018-11-04T07:14:16.608Z,1015.75
2018-11-04T07:15:16.593Z,1015.75
2018-11-04T07:16:16.580Z,1015.75
2018-11-04T07:17:16.579Z,1015.74
2018-11-04T07:18:16.604Z,1015.71
2018-11-04T07:19:16.554Z,1015.71
2018-11-04T07:20:16.544Z,1015.75
2018-11-04T07:21:16.524Z,1015.74
2018-11-04T07:22:16.523Z,1015.76
2018-11-04T07:23:16.506Z,1015.84
2018-11-04T07:24:16.549Z,1015.86
2018-11-04T07:25:16.492Z,1015.93
2018-11-04T07:26:16.478Z,1015.91
2018-11-04T07:27:16.464Z,1015.91
2018-11-04T07:28:27.240Z,1015.99
2018-11-04T07:29:16.446Z,1015.98
2018-11-04T07:30:16.474Z,1016.00
2018-11-04T07:31:16.423Z,1015.97
2018-11-04T07:32:16.476Z,1015.96
2018-11-04T07:33:16.405Z,1015.96
2018-11-04T07:34:16.386Z,1016.01
2018-11-04T07:35:16.380Z,1016.00
2018-11-04T07:36:16.409Z,1016.01
2018-11-04T07:37:16.359Z,1016.02
2018-11-04T07:38:16.361Z,1016.00
2018-11-04T07:39:16.333Z,1016.01
2018-11-04T07:40:16.327Z,1015.99
2018-11-04T07:41:16.318Z,1016.02
2018-11-04T07:42:16.345Z,1015.99
2018-11-04T07:43:16.293Z,1016.00
2018-11-04T07:44:16.346Z,1016.08
2018-11-04T07:45:16.282Z,1016.06
2018-11-04T07:46:16.267Z,1016.08
2018-11-04T07:47:16.247Z,1016.11
2018-11-04T07:48:16.260Z,1016.09
2018-11-04T07:49:16.228Z,1016.04
2018-11-04T07:50:16.215Z,1016.09
2018-11-04T07:51:16.222Z,1016.13
2018-11-04T07:52:16.198Z,1016.09
2018-11-04T07:53:16.185Z,1016.14
2018-11-04T07:54:16.192Z,1016.15
2018-11-04T07:55:16.169Z,1016.09
2018-11-04T07:56:16.156Z,1016.13
2018-11-04T07:57:16.153Z,1016.04
2018-11-04T07:58:16.136Z,1016.10
2018-11-04T07:59:26.750Z,1016.08
2018-11-04T08:00:16.112Z,1016.06
2018-11-04T08:01:16.099Z,1016.06
2018-11-04T08:02:16.089Z,1015.98
2018-11-04T08:03:16.078Z,1016.01
2018-11-04T08:04:16.208Z,1015.93
2018-11-04T08:05:16.095Z,1015.93
2018-11-04T08:06:16.050Z,1015.93
2018-11-04T08:07:16.039Z,1015.94
2018-11-04T08:08:16.021Z,1015.97
2018-11-04T08:09:16.011Z,1016.00
2018-11-04T08:10:16.004Z,1016.02
2018-11-04T08:11:16.010Z,1016.04
2018-11-04T08:12:15.981Z,1016.07
2018-11-04T08:13:15.970Z,1016.10
2018-11-04T08:14:15.957Z,1016.08
2018-11-04T08:15:15.953Z,1016.01
2018-11-04T08:16:15.936Z,1016.10
2018-11-04T08:17:16.001Z,1016.06
2018-11-04T08:18:15.919Z,1016.04
2018-11-04T08:19:15.904Z,1016.10
2018-11-04T08:20:15.892Z,1016.09
2018-11-04T08:21:15.969Z,1016.03
2018-11-04T08:22:15.878Z,1016.08
2018-11-04T08:23:15.908Z,1016.05
2018-11-04T08:24:15.856Z,1016.06
2018-11-04T08:25:15.838Z,1016.07
2018-11-04T08:26:15.833Z,1016.13
2018-11-04T08:27:15.820Z,1016.21
2018-11-04T08:28:15.809Z,1016.20
2018-11-04T08:29:15.839Z,1016.24
2018-11-04T08:30:26.322Z,1016.33
2018-11-04T08:31:15.777Z,1016.27
2018-11-04T08:32:15.762Z,1016.26
2018-11-04T08:33:15.818Z,1016.27
2018-11-04T08:34:15.751Z,1016.25
2018-11-04T08:35:15.906Z,1016.22
2018-11-04T08:36:15.726Z,1016.23
2018-11-04T08:37:15.715Z,1016.23
2018-11-04T08:38:15.701Z,1016.22
2018-11-04T08:39:15.696Z,1016.30
2018-11-04T08:40:15.701Z,1016.27
2018-11-04T08:41:15.709Z,1016.26
2018-11-04T08:42:15.662Z,1016.22
2018-11-04T08:43:15.650Z,1016.25
2018-11-04T08:44:15.638Z,1016.26
2018-11-04T08:45:15.635Z,1016.23
2018-11-04T08:46:15.611Z,1016.21
2018-11-04T08:47:15.617Z,1016.22
2018-11-04T08:48:15.601Z,1016.20
2018-11-04T08:49:15.582Z,1016.22
2018-11-04T08:50:15.569Z,1016.21
2018-11-04T08:51:15.555Z,1016.18
2018-11-04T08:52:15.551Z,1016.28
2018-11-04T08:53:15.575Z,1016.23
2018-11-04T08:54:15.529Z,1016.25
2018-11-04T08:55:15.514Z,1016.24
2018-11-04T08:56:15.500Z,1016.27
2018-11-04T08:57:15.497Z,1016.26
2018-11-04T08:58:15.491Z,1016.24
2018-11-04T08:59:15.593Z,1016.26
2018-11-04T09:00:15.618Z,1016.24
2018-11-04T09:01:25.778Z,1016.28
2018-11-04T09:02:15.440Z,1016.24
2018-11-04T09:03:15.427Z,1016.21
2018-11-04T09:04:15.416Z,1016.31
2018-11-04T09:05:15.429Z,1016.36
2018-11-04T09:06:15.407Z,1016.32
2018-11-04T09:07:15.382Z,1016.30
2018-11-04T09:08:15.375Z,1016.36
2018-11-04T09:09:15.362Z,1016.36
2018-11-04T09:10:15.353Z,1016.38
2018-11-04T09:11:15.511Z,1016.31
2018-11-04T09:12:15.331Z,1016.38
2018-11-04T09:13:15.320Z,1016.35
2018-11-04T09:14:15.355Z,1016.38
2018-11-04T09:15:15.296Z,1016.34
2018-11-04T09:16:15.288Z,1016.36
2018-11-04T09:17:15.435Z,1016.38
2018-11-04T09:18:15.266Z,1016.44
2018-11-04T09:19:15.260Z,1016.42
2018-11-04T09:20:15.250Z,1016.42
2018-11-04T09:21:15.238Z,1016.38
2018-11-04T09:22:15.246Z,1016.43
2018-11-04T09:23:15.254Z,1016.44
2018-11-04T09:24:15.199Z,1016.57
2018-11-04T09:25:15.187Z,1016.48
2018-11-04T09:26:15.178Z,1016.43
2018-11-04T09:27:15.168Z,1016.52
2018-11-04T09:28:15.159Z,1016.42
2018-11-04T09:29:15.271Z,1016.45
2018-11-04T09:30:15.142Z,1016.42
2018-11-04T09:31:15.124Z,1016.40
2018-11-04T09:32:25.500Z,1016.42
2018-11-04T09:33:15.099Z,1016.41
2018-11-04T09:34:15.087Z,1016.46
2018-11-04T09:35:15.209Z,1016.42
2018-11-04T09:36:15.251Z,1016.44
2018-11-04T09:37:15.068Z,1016.46
2018-11-04T09:38:15.050Z,1016.44
2018-11-04T09:39:15.735Z,1016.47
2018-11-04T09:40:15.029Z,1016.49
2018-11-04T09:41:15.188Z,1016.50
2018-11-04T09:42:15.007Z,1016.48
2018-11-04T09:43:14.996Z,1016.44
2018-11-04T09:44:14.987Z,1016.44
2018-11-04T09:45:14.973Z,1016.46
2018-11-04T09:46:14.963Z,1016.44
2018-11-04T09:47:14.984Z,1016.38
2018-11-04T09:48:14.952Z,1016.38
2018-11-04T09:49:14.925Z,1016.34
2018-11-04T09:50:14.914Z,1016.39
2018-11-04T09:51:14.909Z,1016.36
2018-11-04T09:52:14.896Z,1016.44
2018-11-04T09:53:14.923Z,1016.37
2018-11-04T09:54:14.874Z,1016.35
2018-11-04T09:55:14.858Z,1016.35
2018-11-04T09:56:14.884Z,1016.36
2018-11-04T09:57:14.851Z,1016.40
2018-11-04T09:58:14.842Z,1016.39
2018-11-04T09:59:14.853Z,1016.41
2018-11-04T10:00:14.812Z,1016.41
2018-11-04T10:01:14.795Z,1016.46
2018-11-04T10:02:14.788Z,1016.42
2018-11-04T10:03:25.122Z,1016.40
2018-11-04T10:04:14.766Z,1016.41
2018-11-04T10:05:14.773Z,1016.40
2018-11-04T10:06:14.746Z,1016.39
2018-11-04T10:07:14.790Z,1016.37
2018-11-04T10:08:14.721Z,1016.37
2018-11-04T10:09:14.706Z,1016.32
2018-11-04T10:10:14.699Z,1016.34
2018-11-04T10:11:14.723Z,1016.34
2018-11-04T10:12:14.679Z,1016.36
2018-11-04T10:13:14.714Z,1016.36
2018-11-04T10:14:14.657Z,1016.36
2018-11-04T10:15:14.645Z,1016.32
2018-11-04T10:16:14.685Z,1016.33
2018-11-04T10:17:14.688Z,1016.36
2018-11-04T10:18:14.614Z,1016.34
2018-11-04T10:19:14.739Z,1016.32
2018-11-04T10:20:14.893Z,1016.34
2018-11-04T10:21:14.580Z,1016.33
2018-11-04T10:22:14.570Z,1016.31
2018-11-04T10:23:14.599Z,1016.30
2018-11-04T10:24:14.551Z,1016.29
2018-11-04T10:25:14.538Z,1016.28
2018-11-04T10:26:14.527Z,1016.26
2018-11-04T10:27:14.516Z,1016.32
2018-11-04T10:28:14.501Z,1016.30
2018-11-04T10:29:14.507Z,1016.29
2018-11-04T10:30:14.559Z,1016.36
2018-11-04T10:31:14.476Z,1016.34
2018-11-04T10:32:14.471Z,1016.33
2018-11-04T10:33:14.449Z,1016.30
2018-11-04T10:34:24.811Z,1016.31
2018-11-04T10:35:14.426Z,1016.35
2018-11-04T10:36:14.433Z,1016.35
2018-11-04T10:37:14.482Z,1016.34
2018-11-04T10:38:14.401Z,1016.31
2018-11-04T10:39:14.388Z,1016.35
2018-11-04T10:40:14.408Z,1016.37
2018-11-04T10:41:14.365Z,1016.38
2018-11-04T10:42:14.468Z,1016.36
2018-11-04T10:43:14.349Z,1016.38
2018-11-04T10:44:14.335Z,1016.41
2018-11-04T10:45:14.414Z,1016.40
2018-11-04T10:46:14.345Z,1016.41
2018-11-04T10:47:14.299Z,1016.42
2018-11-04T10:48:14.288Z,1016.43
2018-11-04T10:49:14.289Z,1016.43
2018-11-04T10:50:14.267Z,1016.44
2018-11-04T10:51:14.259Z,1016.39
2018-11-04T10:52:14.317Z,1016.41
2018-11-04T10:53:14.237Z,1016.39
2018-11-04T10:54:14.224Z,1016.43
2018-11-04T10:55:14.210Z,1016.39
2018-11-04T10:56:14.207Z,1016.39
2018-11-04T10:57:14.191Z,1016.41
2018-11-04T10:58:14.217Z,1016.40
2018-11-04T10:59:14.166Z,1016.38
2018-11-04T11:00:14.163Z,1016.43
2018-11-04T11:01:14.150Z,1016.43
2018-11-04T11:02:14.139Z,1016.45
2018-11-04T11:03:14.126Z,1016.43
2018-11-04T11:04:14.286Z,1016.38
2018-11-04T11:05:24.488Z,1016.42
2018-11-04T11:06:14.093Z,1016.38
2018-11-04T11:07:14.082Z,1016.39
2018-11-04T11:08:14.071Z,1016.38
2018-11-04T11:09:14.058Z,1016.35
2018-11-04T11:10:14.084Z,1016.36
2018-11-04T11:11:14.039Z,1016.38
2018-11-04T11:12:14.035Z,1016.35
2018-11-04T11:13:14.019Z,1016.34
2018-11-04T11:14:14.004Z,1016.37
2018-11-04T11:15:14.002Z,1016.34
2018-11-04T11:16:14.015Z,1016.36
2018-11-04T11:17:13.971Z,1016.35
2018-11-04T11:18:13.969Z,1016.36
2018-11-04T11:19:13.949Z,1016.29
2018-11-04T11:20:13.938Z,1016.36
2018-11-04T11:21:13.925Z,1016.37
2018-11-04T11:22:13.975Z,1016.35
2018-11-04T11:23:14.049Z,1016.38
2018-11-04T11:24:13.898Z,1016.38
2018-11-04T11:25:13.904Z,1016.41
2018-11-04T11:26:13.876Z,1016.40
2018-11-04T11:27:13.860Z,1016.38
2018-11-04T11:28:13.896Z,1016.41
2018-11-04T11:29:13.841Z,1016.42
2018-11-04T11:30:13.888Z,1016.38
2018-11-04T11:31:13.831Z,1016.36
2018-11-04T11:32:13.811Z,1016.36
2018-11-04T11:33:13.798Z,1016.35
2018-11-04T11:34:13.831Z,1016.40
2018-11-04T11:35:13.779Z,1016.38
2018-11-04T11:36:23.860Z,1016.30
2018-11-04T11:37:13.796Z,1016.35
2018-11-04T11:38:13.750Z,1016.49
2018-11-04T11:39:13.738Z,1016.46
2018-11-04T11:40:13.774Z,1016.40
2018-11-04T11:41:13.718Z,1016.52
2018-11-04T11:42:13.703Z,1016.47
2018-11-04T11:43:13.689Z,1016.52
2018-11-04T11:44:13.682Z,1016.55
2018-11-04T11:45:13.677Z,1016.52
2018-11-04T11:46:13.680Z,1016.49
2018-11-04T11:47:13.652Z,1016.44
2018-11-04T11:48:13.642Z,1016.51
2018-11-04T11:49:13.623Z,1016.46
2018-11-04T11:50:13.612Z,1016.55
2018-11-04T11:51:13.640Z,1016.57
2018-11-04T11:52:13.639Z,1016.53
2018-11-04T11:53:13.586Z,1016.50
2018-11-04T11:54:13.577Z,1016.50
2018-11-04T11:55:13.563Z,1016.52
2018-11-04T11:56:13.546Z,1016.51
2018-11-04T11:57:13.542Z,1016.57
2018-11-04T11:58:13.617Z,1016.50
2018-11-04T11:59:13.585Z,1016.48
2018-11-04T12:00:13.510Z,1016.50
2018-11-04T12:01:13.496Z,1016.42
2018-11-04T12:02:13.523Z,1016.49
2018-11-04T12:03:13.470Z,1016.48
2018-11-04T12:04:13.511Z,1016.48
2018-11-04T12:05:13.458Z,1016.50